createdAt,value
2022-11-29T00:01:42.721Z,5.50
2022-11-29T00:04:10.028Z,5.50
2022-11-29T00:06:36.722Z,5.50
2022-11-29T00:09:06.806Z,5.50
2022-11-29T00:11:54.573Z,5.50
2022-11-29T00:14:22.688Z,5.50
2022-11-29T00:16:55.517Z,5.50
2022-11-29T00:19:22.463Z,5.50
2022-11-29T00:21:49.394Z,5.50
2022-11-29T00:24:16.426Z,5.50
2022-11-29T00:26:43.126Z,5.50
2022-11-29T00:29:12.534Z,5.50
2022-11-29T00:31:40.238Z,5.50
2022-11-29T00:34:07.732Z,5.50
2022-11-29T00:36:35.569Z,5.50
2022-11-29T00:39:04.183Z,5.50
2022-11-29T00:41:31.030Z,5.50
2022-11-29T00:43:57.883Z,5.50
2022-11-29T00:46:25.280Z,5.50
2022-11-29T00:48:52.062Z,5.50
2022-11-29T00:51:18.840Z,5.50
2022-11-29T00:53:45.556Z,5.60
2022-11-29T00:56:12.396Z,5.60
2022-11-29T00:58:39.477Z,5.50
2022-11-29T01:01:08.351Z,5.50
2022-11-29T01:03:35.315Z,5.50
2022-11-29T01:06:08.967Z,5.50
2022-11-29T01:08:36.444Z,5.50
2022-11-29T01:11:05.415Z,5.50
2022-11-29T01:13:32.303Z,5.50
2022-11-29T01:16:00.302Z,5.60
2022-11-29T01:18:27.358Z,5.60
2022-11-29T01:21:03.518Z,5.60
2022-11-29T01:23:30.460Z,5.60
2022-11-29T01:26:05.600Z,5.60
2022-11-29T01:28:32.676Z,5.60
2022-11-29T01:30:59.620Z,5.70
2022-11-29T01:33:26.475Z,5.70
2022-11-29T01:35:55.164Z,5.70
2022-11-29T01:38:22.616Z,5.70
2022-11-29T01:41:06.385Z,5.80
2022-11-29T01:43:34.520Z,5.80
2022-11-29T01:46:01.254Z,5.80
2022-11-29T01:48:30.948Z,5.80
2022-11-29T01:51:00.787Z,5.90
2022-11-29T01:53:28.338Z,5.90
2022-11-29T01:56:00.620Z,5.90
2022-11-29T01:58:28.222Z,5.90
2022-11-29T02:00:57.086Z,5.90
2022-11-29T02:03:23.926Z,6.00
2022-11-29T02:05:52.243Z,6.00
2022-11-29T02:08:28.281Z,6.00
2022-11-29T02:11:20.558Z,6.00
2022-11-29T02:14:05.671Z,6.10
2022-11-29T02:16:55.046Z,6.10
2022-11-29T02:19:48.498Z,6.10
2022-11-29T02:22:38.310Z,6.10
2022-11-29T02:25:39.025Z,6.10
2022-11-29T02:28:05.652Z,6.10
2022-11-29T02:30:51.329Z,6.10
2022-11-29T02:33:36.357Z,6.10
2022-11-29T02:36:19.008Z,6.10
2022-11-29T02:39:02.831Z,6.10
2022-11-29T02:42:08.779Z,6.10
2022-11-29T02:44:35.484Z,6.20
2022-11-29T02:47:09.938Z,6.20
2022-11-29T02:50:00.794Z,6.20
2022-11-29T02:53:04.655Z,6.20
2022-11-29T02:55:43.384Z,6.20
2022-11-29T02:58:27.872Z,6.20
2022-11-29T03:01:25.141Z,6.20
2022-11-29T03:04:10.564Z,6.20
2022-11-29T03:07:07.160Z,6.20
2022-11-29T03:09:43.645Z,6.20
2022-11-29T03:12:24.390Z,6.20
2022-11-29T03:15:16.864Z,6.20
2022-11-29T03:18:21.401Z,6.20
2022-11-29T03:21:06.776Z,6.20
2022-11-29T03:23:45.438Z,6.20
2022-11-29T03:26:37.955Z,6.20
2022-11-29T03:29:17.929Z,6.30
2022-11-29T03:31:51.254Z,6.30
2022-11-29T03:34:36.091Z,6.20
2022-11-29T03:37:28.994Z,6.20
2022-11-29T03:40:04.807Z,6.20
2022-11-29T03:42:49.998Z,6.20
2022-11-29T03:45:24.965Z,6.20
2022-11-29T03:48:23.592Z,6.10
2022-11-29T03:51:00.082Z,6.10
2022-11-29T03:53:54.164Z,6.00
2022-11-29T03:56:29.972Z,6.00
2022-11-29T03:59:17.767Z,6.00
2022-11-29T04:01:54.773Z,6.00
2022-11-29T04:05:08.025Z,6.00
2022-11-29T04:07:56.580Z,5.90
2022-11-29T04:10:32.119Z,5.90
2022-11-29T04:13:07.978Z,5.90
2022-11-29T04:16:10.665Z,5.90
2022-11-29T04:19:10.604Z,5.90
2022-11-29T04:21:58.599Z,6.00
2022-11-29T04:24:50.131Z,5.90
2022-11-29T04:27:35.723Z,6.00
2022-11-29T04:30:11.649Z,6.00
2022-11-29T04:33:00.083Z,6.10
2022-11-29T04:35:33.332Z,6.10
2022-11-29T04:38:03.174Z,6.10
2022-11-29T04:40:55.890Z,6.10
2022-11-29T04:43:54.333Z,6.10
2022-11-29T04:46:26.768Z,6.20
2022-11-29T04:49:21.100Z,6.30
2022-11-29T04:52:14.977Z,6.30
2022-11-29T04:54:51.979Z,6.40
2022-11-29T04:57:32.977Z,6.50
2022-11-29T05:00:09.908Z,6.50
2022-11-29T05:02:56.016Z,6.60
2022-11-29T05:05:50.793Z,6.60
2022-11-29T05:08:32.436Z,6.70
2022-11-29T05:11:11.358Z,6.70
2022-11-29T05:14:04.605Z,6.70
2022-11-29T05:17:03.575Z,6.80
2022-11-29T05:19:56.238Z,6.70
2022-11-29T05:22:25.980Z,6.80
2022-11-29T05:25:04.271Z,6.80
2022-11-29T05:27:55.516Z,6.80
2022-11-29T05:30:24.761Z,6.80
2022-11-29T05:33:31.339Z,6.80
2022-11-29T05:36:22.541Z,6.80
2022-11-29T05:39:24.514Z,6.80
2022-11-29T05:42:20.162Z,6.80
2022-11-29T05:44:56.917Z,6.80
2022-11-29T05:47:50.788Z,6.90
2022-11-29T05:50:30.663Z,6.90
2022-11-29T05:53:08.050Z,6.90
2022-11-29T05:55:56.364Z,6.90
2022-11-29T05:58:33.563Z,7.00
2022-11-29T06:01:09.569Z,7.00
2022-11-29T06:03:53.644Z,7.00
2022-11-29T06:06:39.184Z,7.00
2022-11-29T06:09:21.200Z,7.00
2022-11-29T06:11:54.879Z,7.10
2022-11-29T06:14:52.298Z,7.10
2022-11-29T06:17:38.846Z,7.10
2022-11-29T06:20:19.258Z,7.10
2022-11-29T06:23:14.636Z,7.10
2022-11-29T06:26:22.778Z,7.10
2022-11-29T06:29:13.633Z,7.10
2022-11-29T06:31:44.634Z,7.10
2022-11-29T06:34:20.334Z,7.20
2022-11-29T06:36:52.782Z,7.20
2022-11-29T06:39:19.899Z,7.20
2022-11-29T06:41:47.166Z,7.20
2022-11-29T06:44:14.331Z,7.20
2022-11-29T06:46:54.669Z,7.20
2022-11-29T06:49:28.558Z,7.20
2022-11-29T06:52:23.176Z,7.20
2022-11-29T06:55:18.205Z,7.20
2022-11-29T06:58:03.948Z,7.20
2022-11-29T07:00:50.549Z,7.20
2022-11-29T07:03:35.390Z,7.00
2022-11-29T07:06:21.157Z,7.00
2022-11-29T07:08:52.003Z,6.90
2022-11-29T07:11:19.020Z,7.00
2022-11-29T07:13:46.039Z,7.00
2022-11-29T07:16:43.644Z,6.90
2022-11-29T07:19:32.456Z,6.90
2022-11-29T07:22:38.172Z,6.90
2022-11-29T07:25:05.983Z,7.00
2022-11-29T07:27:43.634Z,7.10
2022-11-29T07:30:15.304Z,7.10
2022-11-29T07:33:00.038Z,7.10
2022-11-29T07:36:08.830Z,7.10
2022-11-29T07:38:56.056Z,7.20
2022-11-29T07:42:18.257Z,7.20
2022-11-29T07:45:31.845Z,7.30
2022-11-29T07:47:59.325Z,7.30
2022-11-29T07:50:27.297Z,7.30
2022-11-29T07:52:55.598Z,7.30
2022-11-29T07:55:25.416Z,7.20
2022-11-29T07:57:53.077Z,7.30
2022-11-29T08:00:20.498Z,7.30
2022-11-29T08:02:52.297Z,7.30
2022-11-29T08:05:19.211Z,7.30
2022-11-29T08:07:47.345Z,7.30
2022-11-29T08:10:16.264Z,7.30
2022-11-29T08:12:52.406Z,7.30
2022-11-29T08:15:20.789Z,7.20
2022-11-29T08:17:48.264Z,7.20
2022-11-29T08:20:16.670Z,7.20
2022-11-29T08:22:43.631Z,7.30
2022-11-29T08:25:10.853Z,7.30
2022-11-29T08:27:38.512Z,7.40
2022-11-29T08:30:06.732Z,7.50
2022-11-29T08:32:34.630Z,7.60
2022-11-29T08:35:01.496Z,7.70
2022-11-29T08:37:28.313Z,7.70
2022-11-29T08:39:56.064Z,7.70
2022-11-29T08:42:22.741Z,7.70
2022-11-29T08:44:49.565Z,7.80
2022-11-29T08:47:34.739Z,7.80
2022-11-29T08:50:02.251Z,7.90
2022-11-29T08:52:53.013Z,8.00
2022-11-29T08:55:21.236Z,8.10
2022-11-29T08:57:49.263Z,8.20
2022-11-29T09:00:17.163Z,8.20
2022-11-29T09:02:44.088Z,8.20
2022-11-29T09:05:11.778Z,8.20
2022-11-29T09:07:38.934Z,8.20
2022-11-29T09:10:08.309Z,8.20
2022-11-29T09:12:39.670Z,8.20
2022-11-29T09:15:09.130Z,8.20
2022-11-29T09:17:36.039Z,8.30
2022-11-29T09:20:03.916Z,8.30
2022-11-29T09:22:31.092Z,8.30
2022-11-29T09:24:57.766Z,8.30
2022-11-29T09:27:24.525Z,8.30
2022-11-29T09:29:51.218Z,8.40
2022-11-29T09:32:18.011Z,8.50
2022-11-29T09:34:45.109Z,8.40
2022-11-29T09:37:12.153Z,8.50
2022-11-29T09:39:40.310Z,8.50
2022-11-29T09:42:09.995Z,8.50
2022-11-29T09:45:10.914Z,8.50
2022-11-29T09:47:57.822Z,8.50
2022-11-29T09:50:35.790Z,8.50
2022-11-29T09:53:26.001Z,8.60
2022-11-29T09:56:18.491Z,8.70
2022-11-29T09:59:12.612Z,8.70
2022-11-29T10:01:45.176Z,8.70
2022-11-29T10:04:19.494Z,8.60
2022-11-29T10:06:59.452Z,8.60
2022-11-29T10:09:34.470Z,8.50
2022-11-29T10:12:14.527Z,8.50
2022-11-29T10:14:45.994Z,8.40
2022-11-29T10:17:38.495Z,8.50
2022-11-29T10:20:13.615Z,8.40
2022-11-29T10:22:49.603Z,8.40
2022-11-29T10:25:23.338Z,8.40
2022-11-29T10:27:50.697Z,8.40
2022-11-29T10:30:18.130Z,8.50
2022-11-29T10:32:48.523Z,8.70
2022-11-29T10:35:18.734Z,9.00
2022-11-29T10:38:07.807Z,9.20
2022-11-29T10:40:35.864Z,9.30
2022-11-29T10:43:03.055Z,9.40
2022-11-29T10:45:50.048Z,9.60
2022-11-29T10:48:19.181Z,9.70
2022-11-29T10:50:49.104Z,9.90
2022-11-29T10:53:18.409Z,9.80
2022-11-29T10:56:06.803Z,9.60
2022-11-29T10:58:33.577Z,9.40
2022-11-29T11:01:07.790Z,9.30
2022-11-29T11:03:52.790Z,9.30
2022-11-29T11:06:19.866Z,9.30
2022-11-29T11:08:51.234Z,9.20
2022-11-29T11:11:33.809Z,9.20
2022-11-29T11:14:22.022Z,9.20
2022-11-29T11:16:49.179Z,9.30
2022-11-29T11:19:33.616Z,9.50
2022-11-29T11:22:04.235Z,9.60
2022-11-29T11:24:33.723Z,9.70
2022-11-29T11:27:01.488Z,9.80
2022-11-29T11:29:52.361Z,9.80
2022-11-29T11:32:20.544Z,9.80
2022-11-29T11:35:01.496Z,9.80
2022-11-29T11:37:31.076Z,9.60
2022-11-29T11:40:00.585Z,9.50
2022-11-29T11:42:38.941Z,9.40
2022-11-29T11:45:34.156Z,9.30
2022-11-29T11:48:13.414Z,9.50
2022-11-29T11:50:49.798Z,9.70
2022-11-29T11:53:22.304Z,9.90
2022-11-29T11:56:11.865Z,10.00
2022-11-29T11:58:44.520Z,10.30
2022-11-29T12:01:25.229Z,10.40
2022-11-29T12:03:58.493Z,10.40
2022-11-29T12:06:30.139Z,10.40
2022-11-29T12:09:32.286Z,10.40
2022-11-29T12:12:15.812Z,10.30
2022-11-29T12:14:54.765Z,10.30
2022-11-29T12:17:49.853Z,10.20
2022-11-29T12:20:42.581Z,10.10
2022-11-29T12:23:12.018Z,10.00
2022-11-29T12:25:50.760Z,9.80
2022-11-29T12:28:20.799Z,9.80
2022-11-29T12:31:11.976Z,9.80
2022-11-29T12:33:57.368Z,9.80
2022-11-29T12:36:35.380Z,9.90
2022-11-29T12:39:08.243Z,10.00
2022-11-29T12:41:53.963Z,10.10
2022-11-29T12:44:49.351Z,10.20
2022-11-29T12:47:36.473Z,10.20
2022-11-29T12:50:24.193Z,10.30
2022-11-29T12:53:24.006Z,10.40
2022-11-29T12:56:18.803Z,10.20
2022-11-29T12:59:01.858Z,10.10
2022-11-29T13:01:35.371Z,10.30
2022-11-29T13:04:22.556Z,10.30
2022-11-29T13:07:04.411Z,10.30
2022-11-29T13:10:02.527Z,10.20
2022-11-29T13:12:41.471Z,10.20
2022-11-29T13:15:14.123Z,10.20
2022-11-29T13:17:59.349Z,10.10
2022-11-29T13:20:36.534Z,10.00
2022-11-29T13:23:14.596Z,9.90
2022-11-29T13:25:44.107Z,9.90
2022-11-29T13:28:29.999Z,9.90
2022-11-29T13:31:05.947Z,9.90
2022-11-29T13:33:50.807Z,9.90
2022-11-29T13:36:48.735Z,10.00
2022-11-29T13:39:46.333Z,9.90
2022-11-29T13:42:31.923Z,9.80
2022-11-29T13:45:16.677Z,9.60
2022-11-29T13:48:00.914Z,9.70
2022-11-29T13:50:39.251Z,9.80
2022-11-29T13:53:43.898Z,9.80
2022-11-29T13:56:46.765Z,9.90
2022-11-29T13:59:36.115Z,9.90
2022-11-29T14:02:04.226Z,9.80
2022-11-29T14:04:39.744Z,9.80
2022-11-29T14:07:11.405Z,9.70
2022-11-29T14:09:47.464Z,9.60
2022-11-29T14:12:22.194Z,9.60
2022-11-29T14:14:53.394Z,9.50
2022-11-29T14:17:50.178Z,9.50
2022-11-29T14:20:22.865Z,9.40
2022-11-29T14:23:04.793Z,9.30
2022-11-29T14:28:21.681Z,9.40
2022-11-29T14:30:51.349Z,9.50
2022-11-29T14:33:42.871Z,9.50
2022-11-29T14:36:15.349Z,9.40
2022-11-29T14:39:01.049Z,9.30
2022-11-29T14:41:49.746Z,9.20
2022-11-29T14:44:28.215Z,9.10
2022-11-29T14:47:02.337Z,9.00
2022-11-29T14:49:30.004Z,9.00
2022-11-29T14:52:14.777Z,9.00
2022-11-29T14:55:21.295Z,9.00
2022-11-29T14:57:48.040Z,9.00
2022-11-29T15:00:22.207Z,8.90
2022-11-29T15:02:57.599Z,8.90
2022-11-29T15:05:33.286Z,8.80
2022-11-29T15:08:29.218Z,8.70
2022-11-29T15:11:04.357Z,8.60
2022-11-29T15:13:34.406Z,8.60
2022-11-29T15:16:22.931Z,8.60
2022-11-29T15:19:21.692Z,8.50
2022-11-29T15:22:06.412Z,8.40
2022-11-29T15:24:53.834Z,8.40
2022-11-29T15:27:21.007Z,8.30
2022-11-29T15:29:48.557Z,8.30
2022-11-29T15:32:27.959Z,8.30
2022-11-29T15:34:56.897Z,8.20
2022-11-29T15:37:30.940Z,8.20
2022-11-29T15:40:15.791Z,8.10
2022-11-29T15:42:47.346Z,8.10
2022-11-29T15:45:23.558Z,8.10
2022-11-29T15:47:50.455Z,8.10
2022-11-29T15:50:31.785Z,8.00
2022-11-29T15:53:03.876Z,8.00
2022-11-29T15:55:31.414Z,7.90
2022-11-29T15:58:02.703Z,7.90
2022-11-29T16:00:34.191Z,7.80
2022-11-29T16:03:02.695Z,7.70
2022-11-29T16:05:37.691Z,7.60
2022-11-29T16:08:08.667Z,7.50
2022-11-29T16:10:49.352Z,7.40
2022-11-29T16:13:28.269Z,7.40
2022-11-29T16:16:19.371Z,7.30
2022-11-29T16:18:48.083Z,7.20
2022-11-29T16:21:27.481Z,7.20
2022-11-29T16:23:55.074Z,7.10
2022-11-29T16:26:30.683Z,7.10
2022-11-29T16:29:05.922Z,7.00
2022-11-29T16:31:35.986Z,6.90
2022-11-29T16:34:27.606Z,6.90
2022-11-29T16:37:02.691Z,6.80
2022-11-29T16:39:29.976Z,6.80
2022-11-29T16:42:33.557Z,6.70
2022-11-29T16:45:31.354Z,6.70
2022-11-29T16:47:58.771Z,6.60
2022-11-29T16:50:33.008Z,6.50
2022-11-29T16:53:35.649Z,6.50
2022-11-29T16:56:03.981Z,6.40
2022-11-29T16:58:31.352Z,6.40
2022-11-29T17:00:58.058Z,6.30
2022-11-29T17:03:24.987Z,6.20
2022-11-29T17:05:51.796Z,6.10
2022-11-29T17:08:18.532Z,6.00
2022-11-29T17:10:45.269Z,6.00
2022-11-29T17:13:12.268Z,6.00
2022-11-29T17:15:39.047Z,5.90
2022-11-29T17:18:05.799Z,5.90
2022-11-29T17:20:32.596Z,5.80
2022-11-29T17:22:59.281Z,5.80
2022-11-29T17:25:26.012Z,5.70
2022-11-29T17:27:52.667Z,5.70
2022-11-29T17:30:19.436Z,5.60
2022-11-29T17:32:46.100Z,5.60
2022-11-29T17:35:12.937Z,5.60
2022-11-29T17:37:39.671Z,5.50
2022-11-29T17:40:07.176Z,5.50
2022-11-29T17:42:33.954Z,5.50
2022-11-29T17:45:00.674Z,5.40
2022-11-29T17:47:27.489Z,5.40
2022-11-29T17:49:54.567Z,5.40
2022-11-29T17:52:21.444Z,5.30
2022-11-29T17:54:48.195Z,5.20
2022-11-29T17:57:14.993Z,5.20
2022-11-29T17:59:41.932Z,5.10
2022-11-29T18:02:12.077Z,5.00
2022-11-29T18:04:42.196Z,5.00
2022-11-29T18:07:08.945Z,4.90
2022-11-29T18:09:35.639Z,4.90
2022-11-29T18:12:02.508Z,4.90
2022-11-29T18:14:30.879Z,4.80
2022-11-29T18:16:59.200Z,4.80
2022-11-29T18:19:26.100Z,4.80
2022-11-29T18:21:53.015Z,4.80
2022-11-29T18:24:19.994Z,4.80
2022-11-29T18:26:47.173Z,4.80
2022-11-29T18:29:14.395Z,4.80
2022-11-29T18:31:43.380Z,4.80
2022-11-29T18:34:11.780Z,4.80
2022-11-29T18:36:48.592Z,4.80
2022-11-29T18:39:17.540Z,4.80
2022-11-29T18:41:48.358Z,4.70
2022-11-29T18:44:17.389Z,4.70
2022-11-29T18:46:45.420Z,4.60
2022-11-29T18:49:15.396Z,4.50
2022-11-29T18:51:44.568Z,4.50
2022-11-29T18:54:12.420Z,4.50
2022-11-29T18:56:39.654Z,4.40
2022-11-29T18:59:10.310Z,4.40
2022-11-29T19:01:41.205Z,4.40
2022-11-29T19:04:14.629Z,4.30
2022-11-29T19:06:42.035Z,4.30
2022-11-29T19:09:21.724Z,4.40
2022-11-29T19:11:52.337Z,4.40
2022-11-29T19:14:20.765Z,4.40
2022-11-29T19:16:49.804Z,4.50
2022-11-29T19:19:18.657Z,4.50
2022-11-29T19:21:45.431Z,4.50
2022-11-29T19:24:14.995Z,4.50
2022-11-29T19:26:46.804Z,4.40
2022-11-29T19:29:14.815Z,4.40
2022-11-29T19:31:42.407Z,4.40
2022-11-29T19:34:09.264Z,4.40
2022-11-29T19:36:42.318Z,4.40
2022-11-29T19:39:09.306Z,4.40
2022-11-29T19:41:37.297Z,4.40
2022-11-29T19:44:07.477Z,4.40
2022-11-29T19:46:40.762Z,4.40
2022-11-29T19:49:08.958Z,4.50
2022-11-29T19:51:37.736Z,4.60
2022-11-29T19:54:07.039Z,4.60
2022-11-29T19:56:33.996Z,4.70
2022-11-29T19:59:00.780Z,4.70
2022-11-29T20:01:40.107Z,4.80
2022-11-29T20:04:09.594Z,4.90
2022-11-29T20:06:36.648Z,5.00
2022-11-29T20:09:04.073Z,5.00
2022-11-29T20:11:30.877Z,5.10
2022-11-29T20:13:59.910Z,5.20
2022-11-29T20:16:28.416Z,5.30
2022-11-29T20:19:01.848Z,5.30
2022-11-29T20:21:32.639Z,5.40
2022-11-29T20:24:05.889Z,5.40
2022-11-29T20:26:35.737Z,5.50
2022-11-29T20:29:04.683Z,5.60
2022-11-29T20:31:33.481Z,5.60
2022-11-29T20:34:00.630Z,5.70
2022-11-29T20:36:52.393Z,5.70
2022-11-29T20:39:47.693Z,5.80
2022-11-29T20:42:29.586Z,5.80
2022-11-29T20:45:06.573Z,5.90
2022-11-29T20:47:45.558Z,5.90
2022-11-29T20:50:27.470Z,5.90
2022-11-29T20:53:12.404Z,5.90
2022-11-29T20:55:44.828Z,6.00
2022-11-29T20:58:14.371Z,6.00
2022-11-29T21:00:41.164Z,6.00
2022-11-29T21:03:07.870Z,6.00
2022-11-29T21:05:38.134Z,6.10
2022-11-29T21:08:05.122Z,6.10
2022-11-29T21:10:31.948Z,6.20
2022-11-29T21:12:59.201Z,6.20
2022-11-29T21:15:26.715Z,6.20
2022-11-29T21:17:53.925Z,6.30
2022-11-29T21:20:26.298Z,6.30
2022-11-29T21:23:01.881Z,6.30
2022-11-29T21:25:58.055Z,6.30
2022-11-29T21:28:31.923Z,6.40
2022-11-29T21:30:58.859Z,6.40
2022-11-29T21:33:25.776Z,6.50
2022-11-29T21:35:55.222Z,6.50
2022-11-29T21:38:25.323Z,6.60
2022-11-29T21:40:52.191Z,6.60
2022-11-29T21:43:20.703Z,6.70
2022-11-29T21:45:49.692Z,6.70
2022-11-29T21:48:34.990Z,6.80
2022-11-29T21:51:09.291Z,6.80
2022-11-29T21:53:37.729Z,6.80
2022-11-29T21:56:07.493Z,6.80
2022-11-29T21:58:35.588Z,6.80
2022-11-29T22:01:17.299Z,6.80
2022-11-29T22:03:44.671Z,6.70
2022-11-29T22:06:18.297Z,6.80
2022-11-29T22:08:45.057Z,6.70
2022-11-29T22:11:17.434Z,6.80
2022-11-29T22:14:03.203Z,6.80
2022-11-29T22:16:30.604Z,6.80
2022-11-29T22:18:57.387Z,6.80
2022-11-29T22:21:24.176Z,6.80
2022-11-29T22:23:52.733Z,6.80
2022-11-29T22:26:19.462Z,6.90
2022-11-29T22:28:46.195Z,6.90
2022-11-29T22:31:13.126Z,6.90
2022-11-29T22:33:40.238Z,6.90
2022-11-29T22:36:11.780Z,7.00
2022-11-29T22:38:39.458Z,7.00
2022-11-29T22:41:11.223Z,7.00
2022-11-29T22:43:39.643Z,7.10
2022-11-29T22:46:12.920Z,7.10
2022-11-29T22:48:40.979Z,7.10
2022-11-29T22:51:16.227Z,7.10
2022-11-29T22:53:47.801Z,7.00
2022-11-29T22:56:14.595Z,7.00
2022-11-29T22:58:41.392Z,7.00
2022-11-29T23:01:10.733Z,7.00
2022-11-29T23:03:40.672Z,7.00
2022-11-29T23:06:13.554Z,7.00
2022-11-29T23:08:42.046Z,7.00
2022-11-29T23:11:11.434Z,7.00
2022-11-29T23:13:40.374Z,7.00
2022-11-29T23:16:10.382Z,7.00
2022-11-29T23:18:38.474Z,7.00
2022-11-29T23:21:14.855Z,7.00
2022-11-29T23:23:42.095Z,7.00
2022-11-29T23:26:15.736Z,7.00
2022-11-29T23:28:42.402Z,7.00
2022-11-29T23:31:09.060Z,6.90
2022-11-29T23:33:35.777Z,6.90
2022-11-29T23:36:05.901Z,6.90
2022-11-29T23:38:33.487Z,6.90
2022-11-29T23:41:00.283Z,6.80
2022-11-29T23:43:35.378Z,6.80
2022-11-29T23:46:10.143Z,6.80
2022-11-29T23:48:36.918Z,6.80
2022-11-29T23:51:10.063Z,6.80
2022-11-29T23:53:37.861Z,6.80
2022-11-29T23:56:07.023Z,6.90
2022-11-29T23:58:35.821Z,7.00
